Time;durP1;ratioP1;P1;durP2;ratioP2;P2;SDS_P1;SDS_P2;PMS_P1;PMS_P2;Temp;Humidity;BMP_temperature;BMP_pressure;BME280_temperature;BME280_humidity;BME280_pressure;Samples;Min_cycle;Max_cycle;Signal;HPM_P1;HPM_P2
2022/09/21 00:01:06;;;;;;;2.50;2.30;;;28.70;38.70;;;;;;5105058;28;20474;-72
2022/09/21 00:03:37;;;;;;;1.83;1.73;;;28.50;38.20;;;;;;5101325;28;20513;-76
2022/09/21 00:06:10;;;;;;;2.97;2.77;;;28.40;39.40;;;;;;5104407;28;20530;-73
2022/09/21 00:08:41;;;;;;;2.63;2.40;;;28.40;38.70;;;;;;5102098;28;20795;-74
2022/09/21 00:11:16;;;;;;;2.20;2.00;;;28.30;40.20;;;;;;5102082;28;20457;-73
2022/09/21 00:13:47;;;;;;;2.63;2.13;;;28.30;39.80;;;;;;5104512;28;20522;-71
2022/09/21 00:16:18;;;;;;;2.00;1.90;;;28.20;39.40;;;;;;5090071;28;20525;-75
2022/09/21 00:18:50;;;;;;;2.50;2.30;;;28.10;40.20;;;;;;5098341;28;20459;-71
2022/09/21 00:21:21;;;;;;;2.30;2.10;;;28.10;40.40;;;;;;5109154;28;20995;-71
2022/09/21 00:23:53;;;;;;;3.00;2.57;;;28.10;40.10;;;;;;5102532;28;20521;-71
2022/09/21 00:26:27;;;;;;;2.43;2.23;;;28.00;40.60;;;;;;5102931;28;20918;-70
2022/09/21 00:28:59;;;;;;;3.73;2.53;;;27.90;41.20;;;;;;5109288;28;20455;-71
2022/09/21 00:31:31;;;;;;;2.50;2.40;;;27.80;41.80;;;;;;5101926;28;20459;-70
2022/09/21 00:34:06;;;;;;;2.50;2.30;;;27.80;41.10;;;;;;5101264;28;20452;-69
2022/09/21 00:36:37;;;;;;;2.60;2.40;;;27.70;42.50;;;;;;5100804;28;20475;-70
2022/09/21 00:39:08;;;;;;;2.53;2.33;;;27.60;44.30;;;;;;5106169;28;20514;-71
2022/09/21 00:41:40;;;;;;;3.20;2.40;;;27.60;40.10;;;;;;5104687;28;20865;-73
2022/09/21 00:44:29;;;;;;;2.30;2.10;;;27.60;40.40;;;;;;5118425;28;20494;-68
2022/09/21 00:47:05;;;;;;;2.93;2.50;;;27.50;41.50;;;;;;5107771;28;20482;-71
2022/09/21 00:49:37;;;;;;;2.50;2.13;;;27.50;42.90;;;;;;5113416;28;20531;-69
2022/09/21 00:52:10;;;;;;;2.73;2.30;;;27.30;44.30;;;;;;5104552;28;20509;-73
2022/09/21 00:54:46;;;;;;;2.63;2.43;;;27.10;44.30;;;;;;5105986;28;20504;-69
2022/09/21 00:57:21;;;;;;;2.40;2.20;;;26.90;45.00;;;;;;5109179;28;20509;-70
2022/09/21 00:59:56;;;;;;;3.60;3.30;;;27.00;42.70;;;;;;5101033;28;20942;-71
2022/09/21 01:02:28;;;;;;;2.57;2.13;;;26.90;44.70;;;;;;5108268;28;20960;-71
2022/09/21 01:04:59;;;;;;;3.57;2.67;;;26.90;42.80;;;;;;5105339;28;20472;-69
2022/09/21 01:07:34;;;;;;;4.80;3.00;;;26.90;43.20;;;;;;5109588;28;20530;-69
2022/09/21 01:10:10;;;;;;;5.17;3.80;;;26.90;42.70;;;;;;5125334;28;20468;-69
2022/09/21 01:12:56;;;;;;;3.67;3.33;;;26.90;43.50;;;;;;5125064;28;20470;-70
2022/09/21 01:15:40;;;;;;;3.60;3.30;;;26.90;43.20;;;;;;5125812;28;20449;-70
2022/09/21 01:18:18;;;;;;;6.20;5.47;;;26.90;43.10;;;;;;5124948;28;20532;-70
2022/09/21 01:21:18;;;;;;;7.17;5.87;;;26.80;44.80;;;;;;5124535;28;20464;-69
2022/09/21 01:24:11;;;;;;;3.87;2.97;;;26.80;44.40;;;;;;5125197;28;20500;-69
2022/09/21 01:27:06;;;;;;;3.27;2.97;;;26.60;44.60;;;;;;5124688;27;20445;-70
2022/09/21 01:29:43;;;;;;;3.47;2.93;;;26.40;45.30;;;;;;5125284;28;20478;-69
2022/09/21 01:32:19;;;;;;;3.80;3.40;;;26.20;46.40;;;;;;5124324;28;20506;-69
2022/09/21 01:34:56;;;;;;;3.00;2.80;;;26.00;47.50;;;;;;5124875;27;20477;-69
2022/09/21 01:37:32;;;;;;;3.50;3.20;;;25.80;48.30;;;;;;5110325;28;20449;-69
2022/09/21 01:40:10;;;;;;;4.10;3.20;;;25.70;48.00;;;;;;5104081;28;20506;-69
2022/09/21 01:42:42;;;;;;;3.20;2.90;;;25.50;50.60;;;;;;5104511;28;20448;-69
2022/09/21 01:45:18;;;;;;;3.40;3.10;;;25.30;50.70;;;;;;5104331;28;20445;-69
2022/09/21 01:47:51;;;;;;;3.13;2.77;;;25.10;51.00;;;;;;5103492;28;21034;-69
2022/09/21 01:50:23;;;;;;;2.77;2.50;;;25.00;51.50;;;;;;5103662;28;20449;-69
2022/09/21 01:53:01;;;;;;;2.67;2.30;;;24.90;52.50;;;;;;5104314;28;20471;-69
2022/09/21 01:55:38;;;;;;;3.60;2.47;;;24.70;55.40;;;;;;5104245;28;20447;-69
2022/09/21 01:58:20;;;;;;;3.77;2.60;;;24.50;55.60;;;;;;5104395;28;20891;-69
2022/09/21 02:00:57;;;;;;;3.03;2.73;;;24.30;54.90;;;;;;5104277;28;20445;-70
2022/09/21 02:03:31;;;;;;;2.63;2.43;;;24.10;56.20;;;;;;5103638;28;20466;-68
2022/09/21 02:06:03;;;;;;;2.83;2.60;;;24.00;55.10;;;;;;5104234;28;20452;-68
2022/09/21 02:08:35;;;;;;;2.97;2.63;;;23.90;55.40;;;;;;5099163;28;20520;-68
2022/09/21 02:11:07;;;;;;;3.00;2.80;;;23.80;54.70;;;;;;5083086;28;20840;-67
2022/09/21 02:13:40;;;;;;;3.30;3.00;;;23.60;55.30;;;;;;5082989;28;20432;-69
2022/09/21 02:16:37;;;;;;;3.50;3.07;;;23.50;58.80;;;;;;5084331;28;20448;-69
2022/09/21 02:19:15;;;;;;;3.80;3.23;;;23.20;59.30;;;;;;5083590;28;20475;-69
2022/09/21 02:22:03;;;;;;;2.57;2.37;;;23.00;64.70;;;;;;5083166;28;20497;-69
2022/09/21 02:24:42;;;;;;;3.03;2.73;;;22.80;62.70;;;;;;5083374;28;20520;-69
2022/09/21 02:27:23;;;;;;;5.70;3.47;;;22.60;63.20;;;;;;5083181;28;20537;-69
2022/09/21 02:30:00;;;;;;;3.80;3.40;;;22.40;66.00;;;;;;5083417;28;20482;-69
2022/09/21 02:32:38;;;;;;;6.23;4.97;;;22.30;65.70;;;;;;5082790;28;20473;-69
2022/09/21 02:35:16;;;;;;;4.20;3.83;;;22.20;68.50;;;;;;5083000;28;20452;-68
2022/09/21 02:37:52;;;;;;;5.60;4.33;;;22.00;67.10;;;;;;5083208;28;20453;-69
2022/09/21 02:40:30;;;;;;;4.80;4.40;;;21.90;68.80;;;;;;5083482;28;20496;-68
2022/09/21 02:43:04;;;;;;;8.33;6.10;;;21.70;69.90;;;;;;5082190;28;20766;-69
2022/09/21 02:45:41;;;;;;;4.87;4.20;;;21.60;66.50;;;;;;5083528;28;20451;-69
2022/09/21 02:48:19;;;;;;;5.53;4.80;;;21.50;69.90;;;;;;5082214;28;20486;-69
2022/09/21 02:50:54;;;;;;;5.10;4.60;;;21.40;68.80;;;;;;5083264;28;20451;-67
2022/09/21 02:53:28;;;;;;;4.30;3.90;;;21.40;67.30;;;;;;5083099;28;20450;-68
2022/09/21 02:56:01;;;;;;;4.70;4.20;;;21.40;67.10;;;;;;5083128;28;20431;-68
2022/09/21 02:58:35;;;;;;;5.63;3.90;;;21.30;71.70;;;;;;5096380;28;20465;-68
2022/09/21 03:01:08;;;;;;;3.90;3.60;;;21.20;69.30;;;;;;5102014;28;20519;-68
2022/09/21 03:03:42;;;;;;;5.93;3.70;;;21.00;70.10;;;;;;5102582;28;20450;-68
2022/09/21 03:06:13;;;;;;;5.30;3.90;;;20.90;70.30;;;;;;5102949;28;20446;-68
2022/09/21 03:08:43;;;;;;;4.40;3.63;;;20.90;72.40;;;;;;5103038;28;20457;-68
2022/09/21 03:11:18;;;;;;;3.63;2.90;;;20.90;71.00;;;;;;5102695;28;20435;-68
2022/09/21 03:13:49;;;;;;;4.93;3.40;;;20.80;73.00;;;;;;5102847;28;20442;-68
2022/09/21 03:16:21;;;;;;;4.40;3.97;;;20.70;73.30;;;;;;5103082;28;20480;-68
2022/09/21 03:18:54;;;;;;;3.90;3.60;;;20.70;75.20;;;;;;5101427;28;20459;-69
2022/09/21 03:21:25;;;;;;;4.60;4.20;;;20.60;74.60;;;;;;5103642;28;20463;-69
2022/09/21 03:23:55;;;;;;;5.33;3.13;;;20.50;76.80;;;;;;5100744;28;20970;-71
2022/09/21 03:26:26;;;;;;;3.53;2.83;;;20.40;78.20;;;;;;5105226;28;20460;-70
2022/09/21 03:28:57;;;;;;;4.07;3.67;;;20.30;77.50;;;;;;5099105;28;20494;-70
2022/09/21 03:31:28;;;;;;;4.50;3.63;;;20.30;79.00;;;;;;5109472;28;20466;-71
2022/09/21 03:34:00;;;;;;;4.30;3.90;;;20.20;76.20;;;;;;5103020;28;20467;-71
2022/09/21 03:36:31;;;;;;;5.20;3.77;;;20.20;75.30;;;;;;5119987;28;20453;-72
2022/09/21 03:39:02;;;;;;;4.83;3.80;;;20.10;74.70;;;;;;5102690;28;20512;-70
2022/09/21 03:41:33;;;;;;;9.30;6.97;;;20.10;73.70;;;;;;5110321;28;20454;-70
2022/09/21 03:44:04;;;;;;;5.90;4.60;;;20.20;71.10;;;;;;5102374;28;20523;-69
2022/09/21 03:46:35;;;;;;;5.80;5.30;;;20.20;72.80;;;;;;5102455;28;20553;-69
2022/09/21 03:49:08;;;;;;;7.03;4.40;;;20.10;74.00;;;;;;5104830;28;20551;-69
2022/09/21 03:51:39;;;;;;;5.17;4.20;;;20.00;74.80;;;;;;5097068;28;20490;-70
2022/09/21 03:54:10;;;;;;;4.30;3.90;;;20.00;76.50;;;;;;5102771;28;22024;-70
2022/09/21 03:56:41;;;;;;;5.20;4.70;;;19.90;76.20;;;;;;5093499;28;20738;-72
2022/09/21 03:59:12;;;;;;;4.27;3.87;;;19.80;77.50;;;;;;5100269;28;20463;-73
2022/09/21 04:01:43;;;;;;;4.07;3.63;;;19.70;76.10;;;;;;5100921;28;20461;-72
2022/09/21 04:04:16;;;;;;;4.53;3.50;;;19.60;79.20;;;;;;5107676;28;20457;-74
2022/09/21 04:06:47;;;;;;;4.97;3.40;;;19.60;77.00;;;;;;5090887;28;20458;-72
2022/09/21 04:09:17;;;;;;;3.60;3.20;;;19.60;78.70;;;;;;5104530;28;20497;-75
2022/09/21 04:11:48;;;;;;;2.73;2.50;;;19.50;78.40;;;;;;5084672;28;20434;-71
2022/09/21 04:14:19;;;;;;;4.40;4.00;;;19.50;78.40;;;;;;5103679;28;20441;-74
2022/09/21 04:16:50;;;;;;;3.37;3.07;;;19.40;79.90;;;;;;5100356;28;20488;-75
2022/09/21 04:19:23;;;;;;;3.17;2.80;;;19.40;78.50;;;;;;5105045;28;20592;-71
2022/09/21 04:21:54;;;;;;;2.63;2.43;;;19.30;80.70;;;;;;5093974;28;20555;-70
2022/09/21 04:24:26;;;;;;;3.57;2.67;;;19.20;77.90;;;;;;5109892;28;20506;-74
2022/09/21 04:26:56;;;;;;;2.73;2.50;;;19.20;77.10;;;;;;5093929;28;20451;-71
2022/09/21 04:29:27;;;;;;;2.90;2.70;;;19.20;74.00;;;;;;5097499;28;20490;-70
2022/09/21 04:31:58;;;;;;;2.60;2.40;;;19.20;74.50;;;;;;5100316;28;20457;-69
2022/09/21 04:34:30;;;;;;;3.17;2.77;;;19.10;74.90;;;;;;5098397;28;20491;-70
2022/09/21 04:37:01;;;;;;;3.23;2.97;;;19.20;72.90;;;;;;5102280;28;20466;-71
2022/09/21 04:39:32;;;;;;;3.20;2.50;;;19.10;73.30;;;;;;5102399;28;20430;-69
2022/09/21 04:42:03;;;;;;;2.93;2.60;;;19.10;71.10;;;;;;5104257;28;20455;-69
2022/09/21 04:44:34;;;;;;;3.20;2.30;;;19.20;69.90;;;;;;5094689;28;20458;-70
2022/09/21 04:47:05;;;;;;;2.50;2.30;;;19.20;70.20;;;;;;5106058;28;21105;-68
2022/09/21 04:49:37;;;;;;;2.50;2.30;;;19.20;69.30;;;;;;5101750;28;20564;-70
2022/09/21 04:52:08;;;;;;;3.10;2.80;;;19.20;68.90;;;;;;5104597;28;20981;-69
2022/09/21 04:54:42;;;;;;;1.80;1.70;;;19.30;68.80;;;;;;5108057;28;20432;-68
2022/09/21 04:57:13;;;;;;;2.03;1.83;;;19.30;69.90;;;;;;5099641;28;20456;-68
2022/09/21 04:59:43;;;;;;;1.93;1.83;;;19.20;69.40;;;;;;5106973;28;20454;-68
2022/09/21 05:02:14;;;;;;;2.07;1.87;;;19.10;70.50;;;;;;5104703;28;20423;-66
2022/09/21 05:04:47;;;;;;;2.13;1.93;;;19.00;73.70;;;;;;5106188;28;20927;-66
2022/09/21 05:07:20;;;;;;;2.23;2.03;;;19.00;71.30;;;;;;5104303;28;21366;-67
2022/09/21 05:10:05;;;;;;;2.20;2.00;;;19.00;67.40;;;;;;5110436;28;20539;-66
2022/09/21 05:12:36;;;;;;;3.00;2.03;;;19.10;65.90;;;;;;5107728;28;20458;-67
2022/09/21 05:15:11;;;;;;;3.70;2.23;;;19.10;66.20;;;;;;5110450;28;20468;-67
2022/09/21 05:17:42;;;;;;;2.60;2.40;;;19.00;67.00;;;;;;5103424;28;20512;-67
2022/09/21 05:20:14;;;;;;;4.20;3.30;;;19.00;66.80;;;;;;5106756;28;20499;-67
2022/09/21 05:22:48;;;;;;;5.27;4.50;;;19.20;69.70;;;;;;5113066;28;20458;-67
2022/09/21 05:25:19;;;;;;;8.23;4.63;;;19.40;73.10;;;;;;5113693;28;20480;-67
2022/09/21 05:27:50;;;;;;;6.40;4.90;;;19.50;73.70;;;;;;5096022;28;20898;-67
2022/09/21 05:30:21;;;;;;;6.20;5.60;;;19.50;75.80;;;;;;5107698;28;20563;-67
2022/09/21 05:33:02;;;;;;;7.17;6.00;;;19.60;78.30;;;;;;5103776;28;20463;-67
2022/09/21 05:35:39;;;;;;;7.53;6.30;;;19.60;79.00;;;;;;5097873;28;20466;-67
2022/09/21 05:38:15;;;;;;;6.90;6.20;;;19.60;81.10;;;;;;5104628;28;20470;-67
2022/09/21 05:40:49;;;;;;;8.50;6.93;;;19.60;82.90;;;;;;5093067;28;20430;-67
2022/09/21 05:43:20;;;;;;;8.57;6.53;;;19.50;83.30;;;;;;5105296;28;20445;-67
2022/09/21 05:45:56;;;;;;;8.20;6.27;;;19.40;84.30;;;;;;5107113;28;20441;-66
2022/09/21 05:48:30;;;;;;;9.27;6.93;;;19.20;86.10;;;;;;5102980;28;20809;-67
2022/09/21 05:51:07;;;;;;;8.30;6.67;;;19.20;88.30;;;;;;5104423;28;20610;-67
2022/09/21 05:53:49;;;;;;;7.33;5.83;;;19.20;89.10;;;;;;5107307;28;20462;-67
2022/09/21 05:56:33;;;;;;;7.53;6.70;;;19.10;90.10;;;;;;5107256;28;20824;-66
2022/09/21 05:59:15;;;;;;;11.17;6.60;;;19.00;90.70;;;;;;5116031;28;20495;-67
2022/09/21 06:01:58;;;;;;;9.43;7.17;;;18.90;91.30;;;;;;5102596;28;20482;-67
2022/09/21 06:04:29;;;;;;;10.97;7.97;;;18.80;92.80;;;;;;5102288;28;21965;-67
2022/09/21 06:07:02;;;;;;;7.27;6.10;;;18.60;93.20;;;;;;5105308;28;20510;-67
2022/09/21 06:09:33;;;;;;;7.80;6.40;;;18.50;94.10;;;;;;5105831;28;20461;-67
2022/09/21 06:12:04;;;;;;;7.13;6.43;;;18.40;95.60;;;;;;5102351;28;20527;-66
2022/09/21 06:14:34;;;;;;;9.10;7.03;;;18.30;96.60;;;;;;5095369;28;20428;-67
2022/09/21 06:17:05;;;;;;;9.43;7.07;;;18.20;96.30;;;;;;5122025;28;20417;-67
2022/09/21 06:19:36;;;;;;;9.40;6.70;;;18.10;98.10;;;;;;5095973;28;20498;-66
2022/09/21 06:22:09;;;;;;;8.87;6.63;;;18.00;98.70;;;;;;5099030;28;20434;-66
2022/09/21 06:24:40;;;;;;;8.83;6.83;;;17.90;99.20;;;;;;5096832;28;20463;-66
2022/09/21 06:27:10;;;;;;;10.90;7.90;;;17.90;99.50;;;;;;5110622;28;20440;-66
2022/09/21 06:29:41;;;;;;;10.73;8.30;;;17.90;99.80;;;;;;5106158;28;20459;-67
2022/09/21 06:32:12;;;;;;;10.70;7.80;;;17.80;99.90;;;;;;5101241;28;20526;-66
2022/09/21 06:34:43;;;;;;;9.80;7.60;;;17.80;99.90;;;;;;5101623;28;20429;-66
2022/09/21 06:37:15;;;;;;;11.80;7.43;;;17.80;99.90;;;;;;5102989;28;20618;-66
2022/09/21 06:39:46;;;;;;;12.73;7.37;;;17.80;99.90;;;;;;5101306;28;20462;-67
2022/09/21 06:42:17;;;;;;;8.10;6.40;;;17.70;99.90;;;;;;5101028;28;20788;-66
2022/09/21 06:44:48;;;;;;;10.50;7.77;;;17.50;99.90;;;;;;5100455;28;20528;-67
2022/09/21 06:47:18;;;;;;;8.87;7.67;;;17.50;99.90;;;;;;5102126;28;20506;-66
2022/09/21 06:49:49;;;;;;;8.67;7.23;;;17.50;99.90;;;;;;5109659;28;20467;-66
2022/09/21 06:52:21;;;;;;;10.90;7.97;;;17.50;99.90;;;;;;5102159;28;20442;-66
2022/09/21 06:54:52;;;;;;;8.17;6.83;;;17.40;99.90;;;;;;5112055;28;20464;-66
2022/09/21 06:57:23;;;;;;;9.93;7.33;;;17.30;99.90;;;;;;5106445;28;20462;-67
2022/09/21 06:59:54;;;;;;;8.13;7.10;;;17.20;99.90;;;;;;5099887;28;20436;-67
2022/09/21 07:02:25;;;;;;;9.13;8.00;;;17.20;99.90;;;;;;5100636;28;20468;-66
2022/09/21 07:04:57;;;;;;;8.60;7.67;;;17.10;99.90;;;;;;5103890;28;20454;-66
2022/09/21 07:07:30;;;;;;;13.17;7.80;;;17.10;99.90;;;;;;5101955;28;20600;-67
2022/09/21 07:10:01;;;;;;;10.70;7.30;;;17.10;99.90;;;;;;5117523;28;20824;-66
2022/09/21 07:12:36;;;;;;;10.77;8.10;;;17.10;99.90;;;;;;5100239;28;20447;-67
2022/09/21 07:15:09;;;;;;;11.73;7.67;;;17.00;99.90;;;;;;5102013;28;20441;-66
2022/09/21 07:17:43;;;;;;;9.40;7.80;;;16.90;99.90;;;;;;5106195;28;20448;-66
2022/09/21 07:20:20;;;;;;;11.47;8.60;;;16.80;99.90;;;;;;5098681;28;20547;-66
2022/09/21 07:22:53;;;;;;;9.20;7.23;;;16.80;99.90;;;;;;5098360;28;20459;-67
2022/09/21 07:25:24;;;;;;;13.93;8.40;;;16.70;99.90;;;;;;5102182;28;20433;-66
2022/09/21 07:27:54;;;;;;;11.70;7.70;;;16.60;99.90;;;;;;5105929;28;20463;-66
2022/09/21 07:30:26;;;;;;;9.83;8.03;;;16.70;99.90;;;;;;5104970;28;20478;-66
2022/09/21 07:32:57;;;;;;;8.50;7.60;;;16.60;99.90;;;;;;5103354;28;20534;-65
2022/09/21 07:35:28;;;;;;;9.50;7.17;;;16.60;99.90;;;;;;5095593;28;20461;-65
2022/09/21 07:38:02;;;;;;;9.63;8.37;;;16.60;99.90;;;;;;5106392;28;20453;-66
2022/09/21 07:40:34;;;;;;;8.93;6.90;;;16.60;99.90;;;;;;5100795;28;20490;-65
2022/09/21 07:43:05;;;;;;;9.70;7.83;;;16.50;99.90;;;;;;5105296;28;20463;-65
2022/09/21 07:45:36;;;;;;;11.33;8.17;;;16.40;99.90;;;;;;5101457;28;20486;-65
2022/09/21 07:48:07;;;;;;;11.00;8.10;;;16.30;99.90;;;;;;5103363;28;20477;-65
2022/09/21 07:50:38;;;;;;;11.90;8.90;;;16.30;99.90;;;;;;5110379;28;20922;-66
2022/09/21 07:53:11;;;;;;;9.13;7.33;;;16.30;99.90;;;;;;5101356;28;20841;-65
2022/09/21 07:55:41;;;;;;;11.03;8.43;;;16.20;99.90;;;;;;5104582;28;20529;-66
2022/09/21 08:01:00;;;;;;;11.57;8.40;;;16.10;99.90;;;;;;5102737;28;20503;-66
2022/09/21 08:03:30;;;;;;;11.07;8.53;;;16.00;99.90;;;;;;5108351;28;20477;-66
2022/09/21 08:06:01;;;;;;;11.40;8.50;;;16.00;99.90;;;;;;5113831;28;20475;-65
2022/09/21 08:08:34;;;;;;;8.93;7.77;;;15.90;99.90;;;;;;5109854;28;20505;-65
2022/09/21 08:11:06;;;;;;;10.23;7.90;;;15.80;99.90;;;;;;5109051;28;20906;-65
2022/09/21 08:13:37;;;;;;;10.20;7.67;;;15.90;99.90;;;;;;5102184;28;20467;-66
2022/09/21 08:16:08;;;;;;;10.50;7.73;;;15.90;99.90;;;;;;5101182;28;20454;-65
2022/09/21 08:18:39;;;;;;;8.07;7.27;;;15.90;99.90;;;;;;5103138;28;20554;-65
2022/09/21 08:21:12;;;;;;;9.77;7.90;;;15.80;99.90;;;;;;5099601;28;20470;-65
2022/09/21 08:23:44;;;;;;;8.77;7.47;;;15.80;99.90;;;;;;5100941;28;20436;-65
2022/09/21 08:26:18;;;;;;;9.10;7.37;;;15.70;99.90;;;;;;5106338;28;20440;-65
2022/09/21 08:28:50;;;;;;;10.20;8.13;;;15.70;99.90;;;;;;5110602;28;20473;-66
2022/09/21 08:31:22;;;;;;;10.20;8.33;;;15.60;99.90;;;;;;5098649;28;20536;-66
2022/09/21 08:33:55;;;;;;;8.90;7.17;;;15.50;99.90;;;;;;5103932;28;20553;-65
2022/09/21 08:36:26;;;;;;;10.27;8.13;;;15.40;99.90;;;;;;5115156;28;20511;-66
2022/09/21 08:38:59;;;;;;;9.83;6.77;;;15.40;99.90;;;;;;5113940;28;20461;-66
2022/09/21 08:41:47;;;;;;;11.87;8.07;;;15.40;99.90;;;;;;5106207;28;20543;-65
2022/09/21 08:44:22;;;;;;;7.93;6.93;;;15.30;99.90;;;;;;5110300;28;20519;-65
2022/09/21 08:47:07;;;;;;;10.07;7.73;;;15.20;99.90;;;;;;5105091;28;20462;-66
2022/09/21 08:49:40;;;;;;;10.83;7.50;;;15.30;99.90;;;;;;5103546;28;20811;-65
2022/09/21 08:52:15;;;;;;;9.90;6.60;;;15.30;99.90;;;;;;5102669;28;20518;-66
2022/09/21 08:54:53;;;;;;;10.40;7.23;;;15.30;99.90;;;;;;5106846;28;20465;-66
2022/09/21 08:57:29;;;;;;;7.50;6.77;;;15.30;99.90;;;;;;5101504;28;20777;-65
2022/09/21 09:00:01;;;;;;;11.23;8.47;;;15.30;99.90;;;;;;5102916;28;20461;-66
2022/09/21 09:02:45;;;;;;;10.07;8.47;;;15.30;99.90;;;;;;5103365;28;20497;-66
2022/09/21 09:05:35;;;;;;;11.70;7.83;;;15.20;99.90;;;;;;5109326;28;20486;-66
2022/09/21 09:08:29;;;;;;;12.63;8.60;;;15.20;99.90;;;;;;5104650;28;20462;-65
2022/09/21 09:11:15;;;;;;;9.53;7.80;;;15.30;99.90;;;;;;5103805;28;20488;-66
2022/09/21 09:14:29;;;;;;;9.40;7.60;;;15.20;99.90;;;;;;5107175;28;20523;-65
2022/09/21 09:17:16;;;;;;;9.40;7.80;;;15.20;99.90;;;;;;5084434;28;20626;-66
2022/09/21 09:19:51;;;;;;;10.27;7.30;;;15.10;99.90;;;;;;5104909;28;20478;-66
2022/09/21 09:22:27;;;;;;;11.93;8.80;;;15.00;99.90;;;;;;5099149;28;20901;-66
2022/09/21 09:25:03;;;;;;;10.00;7.83;;;14.90;99.90;;;;;;5102834;28;20458;-65
2022/09/21 09:27:39;;;;;;;11.73;8.37;;;14.80;99.90;;;;;;5105667;28;20462;-65
2022/09/21 09:30:18;;;;;;;8.57;7.60;;;14.80;99.90;;;;;;5104237;28;20466;-65
2022/09/21 09:32:57;;;;;;;10.00;7.90;;;14.90;99.90;;;;;;5104457;28;20565;-66
2022/09/21 09:35:32;;;;;;;13.23;8.63;;;14.80;99.90;;;;;;5118309;28;20849;-65
2022/09/21 09:38:11;;;;;;;10.50;7.97;;;14.80;99.90;;;;;;5117122;28;20429;-66
2022/09/21 09:41:06;;;;;;;12.07;8.17;;;14.70;99.90;;;;;;5108138;28;20541;-66
2022/09/21 09:43:49;;;;;;;9.83;7.97;;;14.70;99.90;;;;;;5117393;28;20483;-65
2022/09/21 09:46:28;;;;;;;12.20;8.33;;;14.60;99.90;;;;;;5104108;28;20463;-65
2022/09/21 09:49:19;;;;;;;12.97;8.30;;;14.60;99.90;;;;;;5108352;28;20475;-66
2022/09/21 09:51:51;;;;;;;11.23;7.47;;;14.50;99.90;;;;;;5108446;28;20486;-65
2022/09/21 09:54:25;;;;;;;10.80;7.63;;;14.50;99.90;;;;;;5103208;28;20459;-65
2022/09/21 09:56:56;;;;;;;10.10;7.00;;;14.50;99.90;;;;;;5103453;28;20450;-65
2022/09/21 09:59:35;;;;;;;9.13;7.77;;;14.30;99.90;;;;;;5104463;28;20470;-65
2022/09/21 10:02:08;;;;;;;10.30;7.53;;;14.30;99.90;;;;;;5107632;28;20462;-65
2022/09/21 10:05:02;;;;;;;10.90;8.33;;;14.20;99.90;;;;;;5105151;28;20499;-65
2022/09/21 10:07:38;;;;;;;10.90;8.63;;;14.10;99.90;;;;;;5104811;28;20457;-65
2022/09/21 10:10:25;;;;;;;9.80;7.00;;;14.10;99.90;;;;;;5105561;28;20463;-65
2022/09/21 10:12:58;;;;;;;10.43;8.37;;;14.20;99.90;;;;;;5100837;28;20486;-65
2022/09/21 10:15:31;;;;;;;11.37;7.50;;;14.10;99.90;;;;;;5103895;28;20459;-65
2022/09/21 10:18:08;;;;;;;10.30;7.57;;;14.00;99.90;;;;;;5103536;28;20554;-66
2022/09/21 10:20:38;;;;;;;8.57;6.47;;;13.90;99.90;;;;;;5107984;28;20490;-66
2022/09/21 10:23:15;;;;;;;10.90;7.40;;;13.80;99.90;;;;;;5099977;28;20461;-65
2022/09/21 10:25:55;;;;;;;8.30;6.27;;;13.80;99.90;;;;;;5104128;28;20454;-65
2022/09/21 10:28:27;;;;;;;13.30;8.50;;;13.80;99.90;;;;;;5103885;28;20816;-65
2022/09/21 10:31:21;;;;;;;11.07;7.87;;;13.80;99.90;;;;;;5105495;28;20821;-65
2022/09/21 10:33:55;;;;;;;11.93;7.33;;;13.70;99.90;;;;;;5101641;28;20982;-65
2022/09/21 10:36:34;;;;;;;10.40;7.97;;;13.70;99.90;;;;;;5100831;28;20458;-65
2022/09/21 10:39:29;;;;;;;9.80;7.40;;;13.70;99.90;;;;;;5102891;28;20458;-66
2022/09/21 10:42:03;;;;;;;8.97;6.80;;;13.80;99.90;;;;;;5076338;28;20466;-66
2022/09/21 10:44:41;;;;;;;11.07;8.00;;;13.70;99.90;;;;;;5102862;28;20603;-65
2022/09/21 10:47:22;;;;;;;7.80;6.50;;;13.70;99.90;;;;;;5102347;28;20458;-65
2022/09/21 10:49:55;;;;;;;10.03;8.13;;;13.70;99.90;;;;;;5104876;28;20511;-65
2022/09/21 10:52:36;;;;;;;12.27;8.33;;;13.50;99.90;;;;;;5104515;28;20527;-65
2022/09/21 10:55:11;;;;;;;8.90;7.03;;;13.50;99.90;;;;;;5102718;28;20462;-66
2022/09/21 10:57:43;;;;;;;11.17;7.87;;;13.50;99.90;;;;;;5101432;28;20933;-65
2022/09/21 11:00:34;;;;;;;10.80;7.60;;;13.60;99.90;;;;;;5089434;28;20483;-65
2022/09/21 11:03:40;;;;;;;9.70;7.80;;;13.60;99.90;;;;;;5094688;28;20451;-65
2022/09/21 11:06:15;;;;;;;7.57;6.50;;;13.60;99.90;;;;;;5103259;28;20609;-65
2022/09/21 11:08:54;;;;;;;10.00;7.20;;;13.50;99.90;;;;;;5088569;28;20454;-65
2022/09/21 11:11:41;;;;;;;11.20;7.97;;;13.50;99.90;;;;;;5103727;28;20462;-65
2022/09/21 11:14:20;;;;;;;9.10;7.87;;;13.50;99.90;;;;;;5117181;28;20532;-65
2022/09/21 11:16:57;;;;;;;7.70;6.70;;;13.40;99.90;;;;;;5100596;28;20526;-65
2022/09/21 11:19:38;;;;;;;12.27;7.50;;;13.40;99.90;;;;;;5098460;28;20490;-65
2022/09/21 11:22:15;;;;;;;8.57;6.80;;;13.40;99.90;;;;;;5100122;28;20987;-65
2022/09/21 11:24:52;;;;;;;8.80;6.50;;;13.30;99.90;;;;;;5109759;28;20483;-65
2022/09/21 11:27:29;;;;;;;9.37;7.37;;;13.30;99.90;;;;;;5107852;28;20568;-65
2022/09/21 11:30:07;;;;;;;8.30;7.40;;;13.30;99.90;;;;;;5114187;28;20496;-65
2022/09/21 11:32:58;;;;;;;10.70;7.30;;;13.30;99.90;;;;;;5107648;28;20493;-65
2022/09/21 11:35:50;;;;;;;9.47;7.57;;;13.30;99.90;;;;;;5107882;28;20458;-65
2022/09/21 11:38:30;;;;;;;9.37;7.30;;;13.20;99.90;;;;;;5099828;28;20493;-65
2022/09/21 11:41:22;;;;;;;8.90;6.73;;;13.20;99.90;;;;;;5100978;28;20503;-65
2022/09/21 11:44:22;;;;;;;8.83;7.07;;;13.10;99.90;;;;;;5103279;28;20473;-65
2022/09/21 11:47:04;;;;;;;10.80;7.40;;;13.00;99.90;;;;;;5091436;28;20454;-65
2022/09/21 11:49:56;;;;;;;8.67;7.13;;;13.10;99.90;;;;;;5113140;28;20528;-66
2022/09/21 11:52:55;;;;;;;11.97;7.93;;;13.10;99.90;;;;;;5091483;28;20565;-65
2022/09/21 11:55:59;;;;;;;9.33;6.63;;;13.00;99.90;;;;;;5121658;28;20521;-65
2022/09/21 11:58:37;;;;;;;8.27;7.03;;;12.90;99.90;;;;;;5120069;28;20510;-66
2022/09/21 12:01:19;;;;;;;7.03;6.33;;;12.90;99.90;;;;;;5104122;28;20508;-66
2022/09/21 12:04:06;;;;;;;11.47;8.43;;;13.00;99.90;;;;;;5087431;28;20434;-65
2022/09/21 12:06:50;;;;;;;10.17;7.30;;;13.00;99.90;;;;;;5103308;28;20503;-65
2022/09/21 12:09:45;;;;;;;9.50;5.93;;;13.20;99.90;;;;;;5116736;28;20449;-66
2022/09/21 12:12:20;;;;;;;11.40;6.37;;;13.30;99.90;;;;;;5096461;28;20484;-65
2022/09/21 12:15:00;;;;;;;10.70;6.70;;;13.40;99.90;;;;;;5102088;28;20546;-65
2022/09/21 12:17:41;;;;;;;9.70;7.33;;;13.50;99.90;;;;;;5114547;28;20466;-65
2022/09/21 12:20:18;;;;;;;8.20;7.27;;;13.60;99.90;;;;;;5099821;28;20593;-65
2022/09/21 12:22:52;;;;;;;8.30;6.57;;;13.70;99.90;;;;;;5099966;28;20466;-65
2022/09/21 12:25:28;;;;;;;8.47;7.43;;;13.70;99.90;;;;;;5101557;28;20449;-65
2022/09/21 12:28:07;;;;;;;6.73;6.03;;;13.80;99.90;;;;;;5085664;28;20530;-65
2022/09/21 12:30:42;;;;;;;10.50;7.23;;;13.80;99.90;;;;;;5102245;28;20469;-65
2022/09/21 12:33:20;;;;;;;7.97;5.80;;;13.90;99.90;;;;;;5105124;28;20901;-65
2022/09/21 12:35:56;;;;;;;8.17;6.60;;;13.90;99.90;;;;;;5105054;28;20462;-65
2022/09/21 12:38:32;;;;;;;10.40;7.20;;;14.00;99.90;;;;;;5105131;28;20466;-66
2022/09/21 12:41:14;;;;;;;8.40;6.57;;;14.10;99.90;;;;;;5105352;28;20470;-66
2022/09/21 12:43:50;;;;;;;6.40;5.17;;;14.00;99.90;;;;;;5108077;28;20442;-66
2022/09/21 12:46:24;;;;;;;9.50;6.93;;;14.00;99.90;;;;;;5111480;28;20472;-65
2022/09/21 12:48:55;;;;;;;8.87;6.83;;;13.90;99.90;;;;;;5114440;28;20460;-65
2022/09/21 12:51:33;;;;;;;9.20;6.97;;;13.90;99.90;;;;;;5110998;28;20462;-65
2022/09/21 12:54:13;;;;;;;8.30;7.10;;;13.80;99.90;;;;;;5098938;28;20960;-65
2022/09/21 12:56:52;;;;;;;7.70;6.50;;;13.70;99.90;;;;;;5106937;28;20462;-65
2022/09/21 12:59:35;;;;;;;8.73;7.17;;;13.60;99.90;;;;;;5105102;28;20527;-66
2022/09/21 13:02:18;;;;;;;12.23;6.93;;;13.60;99.90;;;;;;5107998;28;20814;-65
2022/09/21 13:05:05;;;;;;;8.47;6.47;;;13.50;99.90;;;;;;5099423;28;20557;-65
2022/09/21 13:08:11;;;;;;;8.70;6.53;;;13.50;99.90;;;;;;5120778;28;20615;-65
2022/09/21 13:10:46;;;;;;;7.30;6.53;;;13.40;99.90;;;;;;5105563;28;20480;-66
2022/09/21 13:13:35;;;;;;;7.87;6.00;;;13.40;99.90;;;;;;5106563;28;20463;-66
2022/09/21 13:16:08;;;;;;;10.03;6.50;;;13.30;99.90;;;;;;5122819;28;20505;-66
2022/09/21 13:18:40;;;;;;;7.30;5.43;;;13.10;99.90;;;;;;5100760;28;20460;-66
2022/09/21 13:21:19;;;;;;;7.00;5.67;;;13.20;99.90;;;;;;5108928;28;20455;-66
2022/09/21 13:23:56;;;;;;;7.13;5.90;;;13.30;99.90;;;;;;5123804;28;20561;-66
2022/09/21 13:26:35;;;;;;;7.50;6.00;;;13.30;99.90;;;;;;5110099;28;20478;-66
2022/09/21 13:29:33;;;;;;;7.87;6.00;;;13.30;99.90;;;;;;5122480;28;20445;-65
2022/09/21 13:32:21;;;;;;;8.10;5.50;;;13.30;99.90;;;;;;5116991;28;20884;-66